createdAt,value
2018-05-29T00:02:18.301Z,18.10
2018-05-29T00:04:45.825Z,18.00
2018-05-29T00:07:13.372Z,18.00
2018-05-29T00:09:40.877Z,17.90
2018-05-29T00:12:08.802Z,17.80
2018-05-29T00:14:36.301Z,17.80
2018-05-29T00:17:03.829Z,17.70
2018-05-29T00:19:31.341Z,17.60
2018-05-29T00:21:58.881Z,17.60
2018-05-29T00:24:26.397Z,17.50
2018-05-29T00:26:53.954Z,17.50
2018-05-29T00:29:21.515Z,17.50
2018-05-29T00:31:48.985Z,17.50
2018-05-29T00:34:16.914Z,17.60
2018-05-29T00:36:44.409Z,17.60
2018-05-29T00:39:11.938Z,17.60
2018-05-29T00:41:39.462Z,17.60
2018-05-29T00:44:07.155Z,17.50
2018-05-29T00:46:34.653Z,17.50
2018-05-29T00:49:02.198Z,17.40
2018-05-29T00:51:29.706Z,17.40
2018-05-29T00:53:57.237Z,17.40
2018-05-29T00:56:24.749Z,17.40
2018-05-29T00:58:52.685Z,17.40
2018-05-29T01:01:21.919Z,17.40
2018-05-29T01:03:49.448Z,17.30
2018-05-29T01:06:16.961Z,17.30
2018-05-29T01:08:44.494Z,17.20
2018-05-29T01:11:12.026Z,17.20
2018-05-29T01:13:39.543Z,17.10
2018-05-29T01:16:07.078Z,17.10
2018-05-29T01:18:34.582Z,17.10
2018-05-29T01:21:02.123Z,17.00
2018-05-29T01:23:30.669Z,17.00
2018-05-29T01:25:58.211Z,16.90
2018-05-29T01:28:25.725Z,16.80
2018-05-29T01:30:53.261Z,16.80
2018-05-29T01:33:20.758Z,16.90
2018-05-29T01:35:48.673Z,16.80
2018-05-29T01:38:16.185Z,16.80
2018-05-29T01:40:44.109Z,16.80
2018-05-29T01:43:11.622Z,16.80
2018-05-29T01:45:39.172Z,16.80
2018-05-29T01:48:06.677Z,16.80
2018-05-29T01:50:34.189Z,16.80
2018-05-29T01:53:01.742Z,16.70
2018-05-29T01:55:29.257Z,16.60
2018-05-29T01:57:56.795Z,16.50
2018-05-29T02:00:25.458Z,16.50
2018-05-29T02:02:53.622Z,16.50
2018-05-29T02:05:21.130Z,16.50
2018-05-29T02:07:48.677Z,16.50
2018-05-29T02:10:16.194Z,16.50
2018-05-29T02:12:43.726Z,16.50
2018-05-29T02:15:11.237Z,16.40
2018-05-29T02:17:38.765Z,16.40
2018-05-29T02:20:06.279Z,16.40
2018-05-29T02:22:33.837Z,16.40
2018-05-29T02:25:01.733Z,16.40
2018-05-29T02:27:29.245Z,16.40
2018-05-29T02:29:56.777Z,16.40
2018-05-29T02:32:24.269Z,16.30
2018-05-29T02:34:53.787Z,16.20
2018-05-29T02:40:42.485Z,15.90
2018-05-29T02:43:10.023Z,15.90
2018-05-29T02:45:37.529Z,15.80
2018-05-29T02:48:05.042Z,15.80
2018-05-29T02:50:32.569Z,15.70
2018-05-29T02:53:00.073Z,15.70
2018-05-29T02:55:27.605Z,15.70
2018-05-29T02:57:55.101Z,15.80
2018-05-29T03:00:22.633Z,15.70
2018-05-29T03:02:50.140Z,15.70
2018-05-29T03:05:17.674Z,15.60
2018-05-29T03:07:45.185Z,15.60
2018-05-29T03:10:12.705Z,15.60
2018-05-29T03:12:40.210Z,15.60
2018-05-29T03:15:07.738Z,15.60
2018-05-29T03:17:35.241Z,15.60
2018-05-29T03:20:02.769Z,15.60
2018-05-29T03:22:30.282Z,15.60
2018-05-29T03:24:58.205Z,15.50
2018-05-29T03:27:25.709Z,15.50
2018-05-29T03:29:53.232Z,15.50
2018-05-29T03:32:20.741Z,15.40
2018-05-29T03:34:48.273Z,15.40
2018-05-29T03:37:15.777Z,15.50
2018-05-29T03:39:43.325Z,15.50
2018-05-29T03:42:10.833Z,15.60
2018-05-29T03:44:38.358Z,15.70
2018-05-29T03:47:05.885Z,15.70
2018-05-29T03:49:33.389Z,15.70
2018-05-29T03:52:00.920Z,15.70
2018-05-29T03:54:28.425Z,15.80
2018-05-29T03:56:55.963Z,15.80
2018-05-29T03:59:23.461Z,15.90
2018-05-29T04:01:51.981Z,16.00
2018-05-29T04:04:19.489Z,16.00
2018-05-29T04:06:47.027Z,16.10
2018-05-29T04:09:14.650Z,16.10
2018-05-29T04:11:42.589Z,16.30
2018-05-29T04:14:10.100Z,16.40
2018-05-29T04:16:37.638Z,16.50
2018-05-29T04:19:05.144Z,16.50
2018-05-29T04:21:32.649Z,16.50
2018-05-29T04:24:01.025Z,16.70
2018-05-29T04:26:28.525Z,16.70
2018-05-29T04:28:56.044Z,16.80
2018-05-29T04:31:23.958Z,16.90
2018-05-29T04:33:51.502Z,16.90
2018-05-29T04:36:19.008Z,16.90
2018-05-29T04:38:46.941Z,17.00
2018-05-29T04:41:14.441Z,17.10
2018-05-29T04:43:42.371Z,17.30
2018-05-29T04:46:09.887Z,17.40
2018-05-29T04:48:37.420Z,17.40
2018-05-29T04:51:04.935Z,17.40
2018-05-29T04:53:32.462Z,17.60
2018-05-29T04:55:59.970Z,17.70
2018-05-29T04:58:27.514Z,17.70
2018-05-29T05:00:55.021Z,17.90
2018-05-29T05:03:22.526Z,17.90
2018-05-29T05:05:50.059Z,18.30
2018-05-29T05:08:17.571Z,18.50
2018-05-29T05:10:45.113Z,18.60
2018-05-29T05:13:13.025Z,18.80
2018-05-29T05:15:40.555Z,18.80
2018-05-29T05:18:08.061Z,18.80
2018-05-29T05:20:35.592Z,18.80
2018-05-29T05:23:03.093Z,18.80
2018-05-29T05:25:31.025Z,18.90
2018-05-29T05:27:58.538Z,18.90
2018-05-29T05:30:26.065Z,19.00
2018-05-29T05:32:54.345Z,19.00
2018-05-29T05:35:21.928Z,19.00
2018-05-29T05:37:49.438Z,19.00
2018-05-29T05:40:16.969Z,19.20
2018-05-29T05:42:44.482Z,19.30
2018-05-29T05:45:11.981Z,19.50
2018-05-29T05:47:39.503Z,19.60
2018-05-29T05:50:07.010Z,19.70
2018-05-29T05:52:34.549Z,19.80
2018-05-29T05:55:02.058Z,19.90
2018-05-29T05:57:29.586Z,20.30
2018-05-29T05:59:57.097Z,20.40
2018-05-29T06:02:24.625Z,20.70
2018-05-29T06:04:52.145Z,21.00
2018-05-29T06:07:19.674Z,21.20
2018-05-29T06:09:47.181Z,22.00
2018-05-29T06:12:15.112Z,22.70
2018-05-29T06:14:42.633Z,23.10
2018-05-29T06:17:10.165Z,23.10
2018-05-29T06:19:37.677Z,24.00
2018-05-29T06:22:05.404Z,24.70
2018-05-29T06:24:33.051Z,25.20
2018-05-29T06:27:00.638Z,25.30
2018-05-29T06:29:28.140Z,25.70
2018-05-29T06:31:55.654Z,26.20
2018-05-29T06:34:24.150Z,26.60
2018-05-29T06:36:51.660Z,27.00
2018-05-29T06:39:19.187Z,27.10
2018-05-29T06:41:46.878Z,27.50
2018-05-29T06:44:14.401Z,28.10
2018-05-29T06:46:42.303Z,29.30
2018-05-29T06:49:09.849Z,29.60
2018-05-29T06:51:37.353Z,29.60
2018-05-29T06:54:04.956Z,30.00
2018-05-29T06:56:32.474Z,30.20
2018-05-29T06:59:00.003Z,30.30
2018-05-29T07:01:27.525Z,30.80
2018-05-29T07:03:55.198Z,31.70
2018-05-29T07:06:22.853Z,31.90
2018-05-29T07:08:50.387Z,31.30
2018-05-29T07:11:17.888Z,30.30
2018-05-29T07:13:45.429Z,29.10
2018-05-29T07:16:13.081Z,29.20
2018-05-29T07:18:40.730Z,29.80
2018-05-29T07:21:08.241Z,31.10
2018-05-29T07:23:35.770Z,33.10
2018-05-29T07:26:03.510Z,34.50
2018-05-29T07:28:31.013Z,33.90
2018-05-29T07:30:58.554Z,33.40
2018-05-29T07:33:26.092Z,33.50
2018-05-29T07:35:53.616Z,34.70
2018-05-29T07:38:21.143Z,34.30
2018-05-29T07:40:48.690Z,35.50
2018-05-29T07:43:16.194Z,36.70
2018-05-29T07:45:43.739Z,36.00
2018-05-29T07:48:11.246Z,35.20
2018-05-29T07:50:38.772Z,33.70
2018-05-29T07:53:06.325Z,30.70
2018-05-29T07:55:34.846Z,29.90
2018-05-29T07:58:02.372Z,30.00
2018-05-29T08:00:29.897Z,29.20
2018-05-29T08:02:57.561Z,29.20
2018-05-29T08:05:25.217Z,30.00
2018-05-29T08:07:52.873Z,32.00
2018-05-29T08:10:20.373Z,33.20
2018-05-29T08:12:47.902Z,34.90
2018-05-29T08:15:15.472Z,35.70
2018-05-29T08:17:43.113Z,36.20
2018-05-29T08:20:10.617Z,36.30
2018-05-29T08:22:38.145Z,35.80
2018-05-29T08:25:05.657Z,35.70
2018-05-29T08:27:33.331Z,35.90
2018-05-29T08:30:00.843Z,36.60
2018-05-29T08:32:28.375Z,36.80
2018-05-29T08:34:55.872Z,36.80
2018-05-29T08:37:23.392Z,36.50
2018-05-29T08:39:50.893Z,36.10
2018-05-29T08:42:18.421Z,35.20
2018-05-29T08:44:45.924Z,35.50
2018-05-29T08:47:13.458Z,35.50
2018-05-29T08:49:40.968Z,35.50
2018-05-29T08:52:08.517Z,34.60
2018-05-29T08:54:36.034Z,34.10
2018-05-29T08:57:03.572Z,35.50
2018-05-29T08:59:31.069Z,35.60
2018-05-29T09:01:58.590Z,34.80
2018-05-29T09:04:26.089Z,35.00
2018-05-29T09:06:53.635Z,33.50
2018-05-29T09:09:21.133Z,32.90
2018-05-29T09:11:48.696Z,33.00
2018-05-29T09:14:16.208Z,33.30
2018-05-29T09:16:44.101Z,33.70
2018-05-29T09:19:11.626Z,33.70
2018-05-29T09:21:39.139Z,34.60
2018-05-29T09:24:06.668Z,33.90
2018-05-29T09:26:34.181Z,32.50
2018-05-29T09:29:01.714Z,31.90
2018-05-29T09:31:29.228Z,31.00
2018-05-29T09:33:56.761Z,30.90
2018-05-29T09:36:24.274Z,31.70
2018-05-29T09:38:52.202Z,32.20
2018-05-29T09:41:19.710Z,32.20
2018-05-29T09:43:47.251Z,32.20
2018-05-29T09:46:15.146Z,32.40
2018-05-29T09:48:42.685Z,32.20
2018-05-29T09:51:10.198Z,32.20
2018-05-29T09:53:37.746Z,33.30
2018-05-29T09:56:05.253Z,33.70
2018-05-29T09:58:32.787Z,33.90
2018-05-29T10:01:00.690Z,33.80
2018-05-29T10:03:28.220Z,34.10
2018-05-29T10:05:55.762Z,34.10
2018-05-29T10:08:23.293Z,33.90
2018-05-29T10:10:50.793Z,33.30
2018-05-29T10:13:18.379Z,33.20
2018-05-29T10:15:46.235Z,33.50
2018-05-29T10:18:13.766Z,33.60
2018-05-29T10:20:41.304Z,33.90
2018-05-29T10:23:08.810Z,34.10
2018-05-29T10:25:36.341Z,34.40
2018-05-29T10:28:03.840Z,33.20
2018-05-29T10:30:31.370Z,32.80
2018-05-29T10:32:58.893Z,32.50
2018-05-29T10:35:26.442Z,32.00
2018-05-29T10:37:53.936Z,32.10
2018-05-29T10:40:21.468Z,32.10
2018-05-29T10:42:48.984Z,32.10
2018-05-29T10:45:16.514Z,31.70
2018-05-29T10:47:44.017Z,31.60
2018-05-29T10:50:11.946Z,31.10
2018-05-29T10:52:39.441Z,31.10
2018-05-29T10:55:06.973Z,30.40
2018-05-29T10:57:34.482Z,29.90
2018-05-29T11:00:02.009Z,29.70
2018-05-29T11:02:29.685Z,29.10
2018-05-29T11:04:57.223Z,28.40
2018-05-29T11:07:25.130Z,28.20
2018-05-29T11:09:52.868Z,28.00
2018-05-29T11:12:20.385Z,28.00
2018-05-29T11:14:47.929Z,28.00
2018-05-29T11:17:15.648Z,28.00
2018-05-29T11:19:43.182Z,27.90
2018-05-29T11:22:10.853Z,27.80
2018-05-29T11:24:38.411Z,27.70
2018-05-29T11:27:05.953Z,27.90
2018-05-29T11:29:33.460Z,27.70
2018-05-29T11:32:01.002Z,27.70
2018-05-29T11:34:28.507Z,27.70
2018-05-29T11:36:56.557Z,28.10
2018-05-29T11:39:24.165Z,28.10
2018-05-29T11:41:51.693Z,27.80
2018-05-29T11:44:19.706Z,27.50
2018-05-29T11:46:47.232Z,27.50
2018-05-29T11:49:14.742Z,27.40
2018-05-29T11:51:42.455Z,27.40
2018-05-29T11:54:09.963Z,27.60
2018-05-29T11:56:37.505Z,27.60
2018-05-29T11:59:05.000Z,27.60
2018-05-29T12:01:32.542Z,27.80
2018-05-29T12:04:00.149Z,27.70
2018-05-29T12:06:27.674Z,27.70
2018-05-29T12:08:55.654Z,27.70
2018-05-29T12:11:23.192Z,27.70
2018-05-29T12:13:51.177Z,27.70
2018-05-29T12:16:18.842Z,27.70
2018-05-29T12:18:46.349Z,27.60
2018-05-29T12:21:13.890Z,27.40
2018-05-29T12:23:41.401Z,27.20
2018-05-29T12:26:08.941Z,27.20
2018-05-29T12:28:36.841Z,27.10
2018-05-29T12:31:04.373Z,27.10
2018-05-29T12:33:32.064Z,27.30
2018-05-29T12:35:59.581Z,27.20
2018-05-29T12:38:27.112Z,27.20
2018-05-29T12:40:54.625Z,27.20
2018-05-29T12:43:22.170Z,27.20
2018-05-29T12:45:49.681Z,27.10
2018-05-29T12:48:17.217Z,27.10
2018-05-29T12:50:44.734Z,27.10
2018-05-29T12:53:12.270Z,27.10
2018-05-29T12:55:39.782Z,27.10
2018-05-29T12:58:07.500Z,27.10
2018-05-29T13:00:35.019Z,27.00
2018-05-29T13:03:02.569Z,27.00
2018-05-29T13:05:30.336Z,27.00
2018-05-29T13:07:57.940Z,27.00
2018-05-29T13:10:25.452Z,27.00
2018-05-29T13:12:53.395Z,27.30
2018-05-29T13:15:20.893Z,27.30
2018-05-29T13:17:48.579Z,27.40
2018-05-29T13:20:16.100Z,27.40
2018-05-29T13:22:44.101Z,27.20
2018-05-29T13:25:11.601Z,27.30
2018-05-29T13:27:39.260Z,27.20
2018-05-29T13:30:06.718Z,27.30
2018-05-29T13:32:34.329Z,27.30
2018-05-29T13:35:01.975Z,27.30
2018-05-29T13:37:29.640Z,27.30
2018-05-29T13:39:57.145Z,27.20
2018-05-29T13:42:24.761Z,27.10
2018-05-29T13:44:52.416Z,27.10
2018-05-29T13:47:20.078Z,27.00
2018-05-29T13:49:47.731Z,27.00
2018-05-29T13:52:15.235Z,26.80
2018-05-29T13:54:42.773Z,26.80
2018-05-29T13:57:10.285Z,26.70
2018-05-29T13:59:37.951Z,26.50
2018-05-29T14:02:05.617Z,26.40
2018-05-29T14:04:33.154Z,26.30
2018-05-29T14:07:00.651Z,26.20
2018-05-29T14:09:28.386Z,26.20
2018-05-29T14:11:55.896Z,26.10
2018-05-29T14:14:23.826Z,26.00
2018-05-29T14:16:51.358Z,26.10
2018-05-29T14:19:18.893Z,26.10
2018-05-29T14:21:47.293Z,26.10
2018-05-29T14:24:14.824Z,26.00
2018-05-29T14:26:42.726Z,25.90
2018-05-29T14:29:10.239Z,25.90
2018-05-29T14:31:37.776Z,25.90
2018-05-29T14:34:05.370Z,25.90
2018-05-29T14:36:33.033Z,25.90
2018-05-29T14:39:00.545Z,25.90
2018-05-29T14:41:28.154Z,25.90
2018-05-29T14:43:55.846Z,25.80
2018-05-29T14:46:23.364Z,25.80
2018-05-29T14:48:50.924Z,25.80
2018-05-29T14:51:18.481Z,25.70
2018-05-29T14:53:45.985Z,25.70
2018-05-29T14:56:13.517Z,25.70
2018-05-29T14:58:41.052Z,25.70
2018-05-29T15:01:08.585Z,25.70
2018-05-29T15:03:36.181Z,25.80
2018-05-29T15:06:03.922Z,25.80
2018-05-29T15:08:31.584Z,25.70
2018-05-29T15:10:59.118Z,25.90
2018-05-29T15:13:26.626Z,26.00
2018-05-29T15:15:54.235Z,26.10
2018-05-29T15:18:21.746Z,26.20
2018-05-29T15:20:49.279Z,26.20
2018-05-29T15:23:16.781Z,26.10
2018-05-29T15:25:44.713Z,26.20
2018-05-29T15:28:12.238Z,26.20
2018-05-29T15:30:39.794Z,26.30
2018-05-29T15:33:07.312Z,26.30
2018-05-29T15:35:35.009Z,26.30
2018-05-29T15:38:02.505Z,26.30
2018-05-29T15:40:30.037Z,26.30
2018-05-29T15:42:57.553Z,26.20
2018-05-29T15:45:25.165Z,26.20
2018-05-29T15:47:52.889Z,26.10
2018-05-29T15:50:20.556Z,26.10
2018-05-29T15:52:48.103Z,26.00
2018-05-29T15:55:15.601Z,26.00
2018-05-29T15:57:43.128Z,26.00
2018-05-29T16:00:10.743Z,26.00
2018-05-29T16:02:38.290Z,26.00
2018-05-29T16:05:06.296Z,26.00
2018-05-29T16:07:33.824Z,26.00
2018-05-29T16:10:01.725Z,26.00
2018-05-29T16:12:29.266Z,26.00
2018-05-29T16:14:56.931Z,26.10
2018-05-29T16:17:24.465Z,26.20
2018-05-29T16:19:52.359Z,26.10
2018-05-29T16:22:19.893Z,26.10
2018-05-29T16:24:47.407Z,26.10
2018-05-29T16:27:15.015Z,26.10
2018-05-29T16:29:42.531Z,26.00
2018-05-29T16:32:10.137Z,25.90
2018-05-29T16:34:37.653Z,25.90
2018-05-29T16:37:05.197Z,25.80
2018-05-29T16:39:32.705Z,25.70
2018-05-29T16:42:00.363Z,25.60
2018-05-29T16:44:28.006Z,25.40
2018-05-29T16:46:55.551Z,25.40
2018-05-29T16:49:23.449Z,25.30
2018-05-29T16:51:50.989Z,25.30
2018-05-29T16:54:18.484Z,25.30
2018-05-29T16:56:46.034Z,25.20
2018-05-29T16:59:13.529Z,25.20
2018-05-29T17:01:41.473Z,25.10
2018-05-29T17:04:08.983Z,25.20
2018-05-29T17:06:36.521Z,25.00
2018-05-29T17:09:04.017Z,25.00
2018-05-29T17:11:31.560Z,25.00
2018-05-29T17:13:59.061Z,24.90
2018-05-29T17:16:26.757Z,24.80
2018-05-29T17:18:54.422Z,24.80
2018-05-29T17:21:21.938Z,24.80
2018-05-29T17:23:49.868Z,24.90
2018-05-29T17:26:17.378Z,24.90
2018-05-29T17:28:44.934Z,24.90
2018-05-29T17:31:12.519Z,24.90
2018-05-29T17:33:40.193Z,24.90
2018-05-29T17:36:07.818Z,24.80
2018-05-29T17:38:35.353Z,24.80
2018-05-29T17:41:03.264Z,24.70
2018-05-29T17:43:30.805Z,24.70
2018-05-29T17:45:58.319Z,24.70
2018-05-29T17:48:26.265Z,24.50
2018-05-29T17:50:54.037Z,24.50
2018-05-29T17:53:21.649Z,24.40
2018-05-29T17:55:49.187Z,24.40
2018-05-29T17:58:16.746Z,24.40
2018-05-29T18:00:44.259Z,24.40
2018-05-29T18:03:11.793Z,24.30
2018-05-29T18:05:39.297Z,24.20
2018-05-29T18:08:07.013Z,24.20
2018-05-29T18:10:34.634Z,24.20
2018-05-29T18:13:02.200Z,24.20
2018-05-29T18:15:29.759Z,24.10
2018-05-29T18:17:57.385Z,24.00
2018-05-29T18:20:24.884Z,23.80
2018-05-29T18:22:52.535Z,23.70
2018-05-29T18:25:20.202Z,23.70
2018-05-29T18:27:47.839Z,23.60
2018-05-29T18:30:15.369Z,23.50
2018-05-29T18:32:43.365Z,23.40
2018-05-29T18:35:10.906Z,23.40
2018-05-29T18:37:38.406Z,23.40
2018-05-29T18:40:05.945Z,23.30
2018-05-29T18:42:33.449Z,23.30
2018-05-29T18:45:01.666Z,23.20
2018-05-29T18:47:29.344Z,23.20
2018-05-29T18:49:56.924Z,23.20
2018-05-29T18:52:24.389Z,23.20
2018-05-29T18:54:51.926Z,23.10
2018-05-29T18:57:19.436Z,23.10
2018-05-29T18:59:46.969Z,23.00
2018-05-29T19:02:14.465Z,23.00
2018-05-29T19:04:41.999Z,22.90
2018-05-29T19:07:09.558Z,22.80
2018-05-29T19:09:37.099Z,22.80
2018-05-29T19:12:04.627Z,22.70
2018-05-29T19:14:32.329Z,22.70
2018-05-29T19:16:59.959Z,22.60
2018-05-29T19:19:27.413Z,22.60
2018-05-29T19:21:55.312Z,22.40
2018-05-29T19:24:22.837Z,22.40
2018-05-29T19:26:50.531Z,22.30
2018-05-29T19:29:18.061Z,22.20
2018-05-29T19:31:45.563Z,22.20
2018-05-29T19:34:13.115Z,22.10
2018-05-29T19:36:40.640Z,22.00
2018-05-29T19:39:08.174Z,21.90
2018-05-29T19:41:36.164Z,21.90
2018-05-29T19:44:03.832Z,21.80
2018-05-29T19:46:31.346Z,21.80
2018-05-29T19:48:58.849Z,21.80
2018-05-29T19:51:26.449Z,21.70
2018-05-29T19:53:53.945Z,21.70
2018-05-29T19:56:21.494Z,21.70
2018-05-29T19:58:48.994Z,21.60
2018-05-29T20:01:16.532Z,21.60
2018-05-29T20:03:44.082Z,21.50
2018-05-29T20:06:11.629Z,21.60
2018-05-29T20:08:39.195Z,21.60
2018-05-29T20:11:06.854Z,21.50
2018-05-29T20:13:34.517Z,21.50
2018-05-29T20:16:02.157Z,21.50
2018-05-29T20:18:29.673Z,21.50
2018-05-29T20:20:57.280Z,21.50
2018-05-29T20:23:24.789Z,21.40
2018-05-29T20:25:52.325Z,21.40
2018-05-29T20:28:19.869Z,21.40
2018-05-29T20:30:47.384Z,21.30
2018-05-29T20:33:14.970Z,21.30
2018-05-29T20:35:42.869Z,21.30
2018-05-29T20:38:10.402Z,21.30
2018-05-29T20:40:37.917Z,21.40
2018-05-29T20:43:05.581Z,21.40
2018-05-29T20:45:33.104Z,21.40
2018-05-29T20:48:00.629Z,21.40
2018-05-29T20:50:28.162Z,21.40
2018-05-29T20:52:55.693Z,21.40
2018-05-29T20:55:23.334Z,21.40
2018-05-29T20:57:50.938Z,21.40
2018-05-29T21:00:18.439Z,21.40
2018-05-29T21:02:46.345Z,21.40
2018-05-29T21:05:13.962Z,21.40
2018-05-29T21:07:41.471Z,21.40
2018-05-29T21:10:09.009Z,21.50
2018-05-29T21:12:36.517Z,21.50
2018-05-29T21:15:04.140Z,21.40
2018-05-29T21:17:31.651Z,21.40
2018-05-29T21:19:59.573Z,21.40
2018-05-29T21:22:27.085Z,21.30
2018-05-29T21:24:54.761Z,21.30
2018-05-29T21:27:22.269Z,21.30
2018-05-29T21:29:49.806Z,21.20
2018-05-29T21:32:17.322Z,21.10
2018-05-29T21:34:44.857Z,21.00
2018-05-29T21:37:12.752Z,20.90
2018-05-29T21:39:40.313Z,20.80
2018-05-29T21:42:07.977Z,20.70
2018-05-29T21:44:35.534Z,20.50
2018-05-29T21:47:03.091Z,20.40
2018-05-29T21:49:30.752Z,20.20
2018-05-29T21:51:58.282Z,19.90
2018-05-29T21:54:25.782Z,19.70
2018-05-29T21:56:53.321Z,19.60
2018-05-29T21:59:20.839Z,19.60
2018-05-29T22:01:48.773Z,19.40
2018-05-29T22:04:16.297Z,19.40
2018-05-29T22:06:43.827Z,19.30
2018-05-29T22:09:11.478Z,19.30
2018-05-29T22:11:39.050Z,19.30
2018-05-29T22:14:06.574Z,19.40
2018-05-29T22:16:34.478Z,19.30
2018-05-29T22:19:02.044Z,19.30
2018-05-29T22:21:29.562Z,19.30
2018-05-29T22:23:57.487Z,19.20
2018-05-29T22:26:25.027Z,19.20
2018-05-29T22:28:52.670Z,19.20
2018-05-29T22:31:20.341Z,19.20
2018-05-29T22:33:47.981Z,19.10
2018-05-29T22:36:15.493Z,19.10
2018-05-29T22:38:43.034Z,19.10
2018-05-29T22:41:10.557Z,19.00
2018-05-29T22:43:38.098Z,18.90
2018-05-29T22:46:05.607Z,19.00
2018-05-29T22:48:33.321Z,19.00
2018-05-29T22:51:00.825Z,19.00
2018-05-29T22:53:28.375Z,19.10
2018-05-29T22:55:55.877Z,19.10
2018-05-29T22:58:23.561Z,19.10
2018-05-29T23:00:51.189Z,18.90
2018-05-29T23:03:18.773Z,18.90
2018-05-29T23:05:46.299Z,18.70
2018-05-29T23:08:13.979Z,18.50
2018-05-29T23:10:41.852Z,18.40
2018-05-29T23:13:09.613Z,18.40
2018-05-29T23:15:37.118Z,18.40
2018-05-29T23:18:04.812Z,18.40
2018-05-29T23:20:32.322Z,18.40
2018-05-29T23:22:59.857Z,18.40
2018-05-29T23:25:27.594Z,18.50
2018-05-29T23:27:55.099Z,18.60
2018-05-29T23:30:22.629Z,18.70
2018-05-29T23:32:50.129Z,18.70
2018-05-29T23:35:17.653Z,18.80
2018-05-29T23:37:45.279Z,18.80
2018-05-29T23:40:12.833Z,18.80
2018-05-29T23:42:40.393Z,18.80
2018-05-29T23:45:07.933Z,18.70
2018-05-29T23:47:35.447Z,18.70
2018-05-29T23:50:02.981Z,18.70
2018-05-29T23:52:30.493Z,18.60
2018-05-29T23:54:58.028Z,18.60
2018-05-29T23:57:25.531Z,18.60
2018-05-29T23:59:53.176Z,18.60
